createdAt,value
2023-07-21T00:01:17.824Z,1.20
2023-07-21T00:03:19.971Z,1.45
2023-07-21T00:05:25.641Z,1.48
2023-07-21T00:07:27.752Z,0.85
2023-07-21T00:09:29.849Z,1.25
2023-07-21T00:11:31.856Z,1.50
2023-07-21T00:13:37.401Z,1.10
2023-07-21T00:15:41.167Z,0.98
2023-07-21T00:17:43.479Z,1.02
2023-07-21T00:19:45.967Z,1.25
2023-07-21T00:21:48.351Z,1.00
2023-07-21T00:23:50.376Z,1.25
2023-07-21T00:25:52.723Z,1.25
2023-07-21T00:27:56.073Z,1.52
2023-07-21T00:29:58.209Z,1.08
2023-07-21T00:32:02.596Z,1.30
2023-07-21T00:34:05.450Z,1.35
2023-07-21T00:36:07.930Z,1.20
2023-07-21T00:38:10.044Z,1.30
2023-07-21T00:40:20.226Z,1.00
2023-07-21T00:42:22.407Z,1.30
2023-07-21T00:44:24.396Z,1.08
2023-07-21T00:46:26.886Z,1.40
2023-07-21T00:48:30.593Z,1.20
2023-07-21T00:50:32.767Z,1.25
2023-07-21T00:52:35.602Z,1.13
2023-07-21T00:54:37.833Z,1.27
2023-07-21T00:56:39.944Z,1.45
2023-07-21T00:58:41.970Z,1.38
2023-07-21T01:00:44.332Z,1.10
2023-07-21T01:02:50.845Z,1.00
2023-07-21T01:04:55.663Z,1.10
2023-07-21T01:06:58.901Z,1.00
2023-07-21T01:09:03.390Z,1.20
2023-07-21T01:11:05.520Z,1.20
2023-07-21T01:13:09.985Z,1.10
2023-07-21T01:15:12.028Z,1.38
2023-07-21T01:17:16.137Z,1.10
2023-07-21T01:19:18.258Z,1.52
2023-07-21T01:21:31.903Z,1.42
2023-07-21T01:23:43.130Z,1.50
2023-07-21T01:25:47.361Z,1.50
2023-07-21T01:27:51.739Z,1.60
2023-07-21T01:29:57.563Z,1.90
2023-07-21T01:32:01.077Z,1.30
2023-07-21T01:34:04.179Z,1.20
2023-07-21T01:36:08.212Z,1.63
2023-07-21T01:38:11.934Z,1.13
2023-07-21T01:40:16.410Z,1.30
2023-07-21T01:42:20.977Z,1.27
2023-07-21T01:44:23.740Z,1.35
2023-07-21T01:46:27.648Z,1.40
2023-07-21T01:48:30.056Z,1.40
2023-07-21T01:50:33.000Z,1.30
2023-07-21T01:52:37.053Z,1.40
2023-07-21T01:54:51.281Z,1.30
2023-07-21T01:56:58.454Z,1.38
2023-07-21T01:59:06.856Z,1.88
2023-07-21T02:01:10.820Z,1.40
2023-07-21T02:03:13.531Z,1.30
2023-07-21T02:05:19.861Z,1.10
2023-07-21T02:07:22.075Z,1.50
2023-07-21T02:09:24.211Z,1.30
2023-07-21T02:11:26.204Z,1.40
2023-07-21T02:13:28.171Z,1.75
2023-07-21T02:15:31.510Z,1.40
2023-07-21T02:17:34.392Z,1.40
2023-07-21T02:19:36.420Z,1.48
2023-07-21T02:21:38.413Z,1.08
2023-07-21T02:23:40.507Z,1.13
2023-07-21T02:25:44.478Z,1.40
2023-07-21T02:27:46.490Z,0.95
2023-07-21T02:29:51.643Z,1.02
2023-07-21T02:31:55.163Z,1.10
2023-07-21T02:33:57.301Z,1.38
2023-07-21T02:36:00.885Z,1.70
2023-07-21T02:38:04.752Z,1.13
2023-07-21T02:40:08.496Z,1.38
2023-07-21T02:42:10.604Z,1.00
2023-07-21T02:44:12.977Z,1.23
2023-07-21T02:46:15.387Z,1.10
2023-07-21T02:48:20.539Z,1.05
2023-07-21T02:50:24.247Z,1.20
2023-07-21T02:52:28.521Z,1.15
2023-07-21T02:54:31.445Z,1.20
2023-07-21T02:56:35.593Z,1.90
2023-07-21T02:58:37.787Z,1.50
2023-07-21T03:00:40.328Z,1.73
2023-07-21T03:02:43.733Z,1.00
2023-07-21T03:04:49.616Z,1.35
2023-07-21T03:06:51.968Z,1.40
2023-07-21T03:08:54.724Z,1.80
2023-07-21T03:10:57.216Z,1.30
2023-07-21T03:12:59.354Z,1.48
2023-07-21T03:15:01.370Z,1.40
2023-07-21T03:17:03.680Z,1.65
2023-07-21T03:19:05.721Z,1.52
2023-07-21T03:21:09.287Z,1.65
2023-07-21T03:23:12.987Z,1.60
2023-07-21T03:25:15.283Z,1.73
2023-07-21T03:27:17.473Z,1.48
2023-07-21T03:29:19.509Z,1.65
2023-07-21T03:31:21.985Z,2.00
2023-07-21T03:33:24.114Z,1.35
2023-07-21T03:35:26.417Z,1.52
2023-07-21T03:37:32.110Z,1.50
2023-07-21T03:39:34.403Z,1.35
2023-07-21T03:41:36.678Z,1.35
2023-07-21T03:43:38.862Z,1.40
2023-07-21T03:45:40.843Z,1.65
2023-07-21T03:47:42.932Z,1.63
2023-07-21T03:49:45.103Z,1.42
2023-07-21T03:51:47.229Z,1.40
2023-07-21T03:53:50.604Z,1.48
2023-07-21T03:55:52.674Z,1.58
2023-07-21T03:57:54.745Z,1.83
2023-07-21T03:59:56.765Z,1.63
2023-07-21T04:01:58.884Z,1.67
2023-07-21T04:04:01.143Z,1.77
2023-07-21T04:06:09.070Z,1.75
2023-07-21T04:08:11.366Z,1.30
2023-07-21T04:10:15.694Z,1.90
2023-07-21T04:12:17.787Z,1.80
2023-07-21T04:14:20.153Z,1.52
2023-07-21T04:16:22.458Z,1.52
2023-07-21T04:18:25.316Z,1.35
2023-07-21T04:20:29.837Z,1.60
2023-07-21T04:22:31.819Z,1.58
2023-07-21T04:24:35.267Z,1.92
2023-07-21T04:26:38.809Z,1.90
2023-07-21T04:28:41.129Z,2.10
2023-07-21T04:30:43.193Z,1.50
2023-07-21T04:32:45.350Z,2.00
2023-07-21T04:34:47.479Z,1.92
2023-07-21T04:36:49.515Z,1.88
2023-07-21T04:38:51.596Z,1.80
2023-07-21T04:40:54.041Z,2.28
2023-07-21T04:42:57.529Z,2.00
2023-07-21T04:44:59.637Z,2.20
2023-07-21T04:47:01.812Z,2.10
2023-07-21T04:49:08.330Z,2.22
2023-07-21T04:51:10.384Z,2.17
2023-07-21T04:53:12.739Z,2.42
2023-07-21T04:55:16.040Z,2.08
2023-07-21T04:57:18.988Z,2.13
2023-07-21T04:59:22.517Z,2.00
2023-07-21T05:01:24.602Z,1.98
2023-07-21T05:03:26.707Z,1.85
2023-07-21T05:05:29.105Z,2.63
2023-07-21T05:07:31.213Z,2.95
2023-07-21T05:09:33.332Z,2.10
2023-07-21T05:11:35.386Z,2.45
2023-07-21T05:13:38.789Z,2.25
2023-07-21T05:15:43.677Z,2.70
2023-07-21T05:19:47.660Z,2.10
2023-07-21T05:21:49.684Z,1.73
2023-07-21T05:23:51.649Z,1.40
2023-07-21T05:26:01.404Z,1.40
2023-07-21T05:28:03.757Z,1.20
2023-07-21T05:30:06.930Z,1.25
2023-07-21T05:32:10.777Z,1.70
2023-07-21T05:34:12.725Z,1.48
2023-07-21T05:36:14.737Z,1.83
2023-07-21T05:38:16.972Z,1.40
2023-07-21T05:40:19.116Z,3.00
2023-07-21T05:42:21.297Z,2.50
2023-07-21T05:44:23.762Z,2.05
2023-07-21T05:46:26.169Z,1.58
2023-07-21T05:48:29.804Z,1.25
2023-07-21T05:50:36.794Z,1.52
2023-07-21T05:52:38.829Z,1.77
2023-07-21T05:54:42.716Z,1.50
2023-07-21T05:56:44.809Z,1.25
2023-07-21T05:58:46.773Z,1.88
2023-07-21T06:00:48.867Z,1.85
2023-07-21T06:02:51.037Z,1.80
2023-07-21T06:04:57.499Z,1.50
2023-07-21T06:06:59.549Z,1.80
2023-07-21T06:09:01.528Z,1.95
2023-07-21T06:11:03.924Z,1.88
2023-07-21T06:13:07.273Z,1.67
2023-07-21T06:15:09.996Z,2.10
2023-07-21T06:17:12.054Z,1.70
2023-07-21T06:19:14.106Z,1.95
2023-07-21T06:21:17.660Z,1.40
2023-07-21T06:23:20.870Z,1.60
2023-07-21T06:25:22.887Z,1.80
2023-07-21T06:27:24.956Z,1.50
2023-07-21T06:29:27.015Z,1.77
2023-07-21T06:31:29.495Z,2.20
2023-07-21T06:33:31.720Z,1.48
2023-07-21T06:35:35.044Z,2.30
2023-07-21T06:37:41.462Z,2.13
2023-07-21T06:39:43.642Z,2.40
2023-07-21T06:41:45.837Z,2.47
2023-07-21T06:43:47.971Z,1.90
2023-07-21T06:45:50.187Z,2.42
2023-07-21T06:47:52.238Z,2.35
2023-07-21T06:49:54.442Z,2.70
2023-07-21T06:51:56.441Z,2.47
2023-07-21T06:53:59.822Z,2.83
2023-07-21T06:56:01.833Z,3.28
2023-07-21T06:58:05.253Z,2.88
2023-07-21T07:00:09.416Z,2.60
2023-07-21T07:02:12.223Z,2.83
2023-07-21T07:04:14.227Z,3.17
2023-07-21T07:06:16.451Z,2.83
2023-07-21T07:08:18.506Z,2.80
2023-07-21T07:10:22.147Z,2.88
2023-07-21T07:12:24.556Z,2.78
2023-07-21T07:14:26.662Z,3.28
2023-07-21T07:16:28.865Z,3.00
2023-07-21T07:18:31.005Z,3.00
2023-07-21T07:20:33.038Z,3.20
2023-07-21T07:22:35.018Z,3.20
2023-07-21T07:24:37.118Z,2.90
2023-07-21T07:26:40.515Z,2.67
2023-07-21T07:28:42.585Z,4.07
2023-07-21T07:30:45.674Z,3.65
2023-07-21T07:32:47.983Z,3.50
2023-07-21T07:34:50.087Z,3.25
2023-07-21T07:36:52.973Z,3.35
2023-07-21T07:38:55.088Z,3.83
2023-07-21T07:41:02.027Z,3.80
2023-07-21T07:43:05.431Z,4.00
2023-07-21T07:45:08.255Z,3.60
2023-07-21T07:47:10.420Z,4.68
2023-07-21T07:49:12.466Z,4.30
2023-07-21T07:51:14.890Z,4.45
2023-07-21T07:53:17.151Z,4.70
2023-07-21T07:55:20.217Z,3.90
2023-07-21T07:57:26.015Z,4.32
2023-07-21T07:59:29.446Z,5.20
2023-07-21T08:01:31.500Z,6.50
2023-07-21T08:03:33.748Z,6.55
2023-07-21T08:05:37.085Z,5.75
2023-07-21T08:07:39.082Z,6.53
2023-07-21T08:09:41.218Z,5.47
2023-07-21T08:11:43.296Z,6.07
2023-07-21T08:13:45.794Z,6.13
2023-07-21T08:15:49.274Z,6.80
2023-07-21T08:17:51.771Z,7.93
2023-07-21T08:19:53.810Z,7.25
2023-07-21T08:21:56.026Z,5.47
2023-07-21T08:23:58.104Z,6.75
2023-07-21T08:26:00.087Z,7.68
2023-07-21T08:28:04.486Z,7.45
2023-07-21T08:30:09.604Z,8.38
2023-07-21T08:32:13.046Z,6.30
2023-07-21T08:34:15.055Z,7.13
2023-07-21T08:36:17.273Z,8.00
2023-07-21T08:38:19.235Z,6.20
2023-07-21T08:40:23.817Z,6.15
2023-07-21T08:42:26.647Z,6.32
2023-07-21T08:44:30.946Z,6.68
2023-07-21T08:46:33.097Z,5.70
2023-07-21T08:48:36.785Z,5.28
2023-07-21T08:50:41.400Z,5.40
2023-07-21T08:52:43.435Z,5.03
2023-07-21T08:54:45.536Z,5.80
2023-07-21T08:56:47.955Z,5.20
2023-07-21T08:58:49.972Z,4.88
2023-07-21T09:00:55.869Z,3.85
2023-07-21T09:03:00.957Z,4.30
2023-07-21T09:05:08.405Z,4.20
2023-07-21T09:07:12.457Z,4.65
2023-07-21T09:09:18.495Z,4.57
2023-07-21T09:11:20.459Z,5.30
2023-07-21T09:13:22.609Z,4.43
2023-07-21T09:15:24.854Z,4.47
2023-07-21T09:17:26.951Z,4.97
2023-07-21T09:19:28.949Z,4.55
2023-07-21T09:21:32.580Z,4.63
2023-07-21T09:23:34.925Z,4.43
2023-07-21T09:25:36.982Z,4.18
2023-07-21T09:27:40.824Z,3.63
2023-07-21T09:29:43.327Z,3.85
2023-07-21T09:33:55.596Z,3.33
2023-07-21T09:36:07.882Z,2.97
2023-07-21T09:38:13.863Z,3.63
2023-07-21T09:40:15.952Z,3.08
2023-07-21T09:42:20.119Z,3.47
2023-07-21T09:44:22.536Z,3.92
2023-07-21T09:46:24.806Z,3.25
2023-07-21T09:48:27.620Z,3.30
2023-07-21T09:50:30.282Z,3.45
2023-07-21T09:52:38.957Z,3.40
2023-07-21T09:54:49.193Z,2.95
2023-07-21T09:56:51.844Z,2.78
2023-07-21T09:58:58.191Z,3.05
2023-07-21T10:01:03.839Z,2.80
2023-07-21T10:03:06.210Z,3.92
2023-07-21T10:05:10.920Z,2.53
2023-07-21T10:07:14.170Z,2.58
2023-07-21T10:09:17.317Z,2.42
2023-07-21T10:11:21.184Z,2.10
2023-07-21T10:13:25.914Z,2.60
2023-07-21T10:17:54.503Z,2.78
2023-07-21T10:20:08.269Z,2.90
2023-07-21T10:22:12.451Z,2.63
2023-07-21T10:24:23.354Z,2.28
2023-07-21T10:26:26.800Z,1.98
2023-07-21T10:28:37.148Z,2.20
2023-07-21T10:30:39.334Z,2.15
2023-07-21T10:32:45.455Z,1.90
2023-07-21T10:34:47.775Z,2.15
2023-07-21T10:36:58.571Z,2.03
2023-07-21T10:39:01.525Z,2.05
2023-07-21T10:41:03.543Z,2.05
2023-07-21T10:43:07.391Z,2.10
2023-07-21T10:45:10.399Z,1.90
2023-07-21T10:47:13.916Z,2.20
2023-07-21T10:49:17.793Z,2.00
2023-07-21T10:51:20.090Z,2.50
2023-07-21T10:53:22.932Z,2.40
2023-07-21T10:55:26.455Z,2.10
2023-07-21T10:57:35.024Z,1.90
2023-07-21T10:59:39.308Z,1.95
2023-07-21T11:01:42.484Z,1.65
2023-07-21T11:03:44.878Z,1.95
2023-07-21T11:05:47.267Z,1.88
2023-07-21T11:07:49.854Z,2.38
2023-07-21T11:09:54.760Z,1.70
2023-07-21T11:14:00.715Z,1.80
2023-07-21T11:16:04.584Z,1.80
2023-07-21T11:18:06.653Z,2.07
2023-07-21T11:20:11.910Z,1.88
2023-07-21T11:22:14.030Z,2.28
2023-07-21T11:24:17.868Z,2.33
2023-07-21T11:26:19.902Z,1.80
2023-07-21T11:28:21.934Z,1.60
2023-07-21T11:30:26.079Z,1.70
2023-07-21T11:32:29.667Z,1.83
2023-07-21T11:34:38.213Z,1.42
2023-07-21T11:36:41.313Z,1.63
2023-07-21T11:38:57.158Z,1.73
2023-07-21T11:40:59.190Z,1.55
2023-07-21T11:43:08.815Z,1.73
2023-07-21T11:45:31.910Z,1.70
2023-07-21T11:47:36.656Z,1.58
2023-07-21T11:49:39.958Z,1.83
2023-07-21T11:51:46.288Z,1.70
2023-07-21T11:53:49.778Z,1.63
2023-07-21T11:55:53.204Z,1.65
2023-07-21T11:57:55.212Z,1.60
2023-07-21T11:59:57.461Z,1.80
2023-07-21T12:02:00.178Z,1.70
2023-07-21T12:04:04.121Z,1.60
2023-07-21T12:06:06.262Z,2.00
2023-07-21T12:08:08.724Z,1.30
2023-07-21T12:10:11.478Z,1.60
2023-07-21T12:12:13.560Z,1.63
2023-07-21T12:14:16.339Z,1.80
2023-07-21T12:16:18.443Z,2.05
2023-07-21T12:18:20.515Z,1.83
2023-07-21T12:20:24.142Z,3.00
2023-07-21T12:22:26.700Z,2.50
2023-07-21T12:24:28.902Z,1.77
2023-07-21T12:26:31.085Z,2.25
2023-07-21T12:28:33.149Z,2.03
2023-07-21T12:30:35.845Z,1.90
2023-07-21T12:32:38.293Z,2.13
2023-07-21T12:34:40.449Z,2.15
2023-07-21T12:36:44.049Z,1.92
2023-07-21T12:38:47.405Z,2.05
2023-07-21T12:40:49.467Z,2.15
2023-07-21T12:42:51.476Z,2.00
2023-07-21T12:44:53.496Z,1.48
2023-07-21T12:46:55.556Z,2.08
2023-07-21T12:48:57.697Z,1.92
2023-07-21T12:51:00.096Z,1.70
2023-07-21T12:53:03.560Z,1.90
2023-07-21T12:55:06.445Z,1.80
2023-07-21T12:57:08.706Z,1.85
2023-07-21T12:59:10.963Z,1.80
2023-07-21T13:01:13.111Z,1.70
2023-07-21T13:03:15.674Z,1.52
2023-07-21T13:05:18.986Z,2.00
2023-07-21T13:07:21.252Z,2.03
2023-07-21T13:09:25.563Z,2.13
2023-07-21T13:11:27.770Z,2.00
2023-07-21T13:13:29.812Z,2.33
2023-07-21T13:15:32.130Z,1.70
2023-07-21T13:17:34.603Z,2.00
2023-07-21T13:19:36.656Z,1.73
2023-07-21T13:21:39.634Z,1.58
2023-07-21T13:23:41.627Z,1.45
2023-07-21T13:25:47.551Z,1.70
2023-07-21T13:27:49.880Z,1.88
2023-07-21T13:29:51.901Z,1.90
2023-07-21T13:31:53.972Z,1.90
2023-07-21T13:33:56.312Z,1.73
2023-07-21T13:38:05.248Z,2.90
2023-07-21T13:40:09.169Z,2.00
2023-07-21T13:42:13.488Z,1.80
2023-07-21T13:44:15.839Z,2.17
2023-07-21T13:46:19.231Z,2.10
2023-07-21T13:48:21.714Z,1.70
2023-07-21T13:50:24.023Z,1.80
2023-07-21T13:52:26.810Z,1.65
2023-07-21T13:54:28.901Z,2.00
2023-07-21T13:56:30.981Z,2.00
2023-07-21T13:58:34.502Z,1.90
2023-07-21T14:00:36.657Z,1.60
2023-07-21T14:02:38.831Z,1.88
2023-07-21T14:04:43.529Z,1.90
2023-07-21T14:06:45.823Z,1.83
2023-07-21T14:08:48.853Z,1.88
2023-07-21T14:10:50.968Z,1.60
2023-07-21T14:12:52.981Z,1.90
2023-07-21T14:14:58.190Z,2.00
2023-07-21T14:17:00.276Z,2.00
2023-07-21T14:19:06.166Z,1.92
2023-07-21T14:21:09.392Z,1.90
2023-07-21T14:23:11.462Z,1.98
2023-07-21T14:25:16.363Z,2.05
2023-07-21T14:27:18.382Z,1.85
2023-07-21T14:29:20.360Z,2.28
2023-07-21T14:31:26.229Z,1.80
2023-07-21T14:33:28.460Z,1.95
2023-07-21T14:35:30.566Z,1.60
2023-07-21T14:37:32.615Z,1.92
2023-07-21T14:39:34.689Z,1.85
2023-07-21T14:41:36.742Z,6.18
2023-07-21T14:43:38.807Z,1.70
2023-07-21T14:45:40.873Z,1.73
2023-07-21T14:47:44.397Z,2.00
2023-07-21T14:49:47.156Z,2.47
2023-07-21T14:51:49.252Z,3.15
2023-07-21T14:53:51.223Z,2.22
2023-07-21T14:55:53.577Z,2.00
2023-07-21T14:57:55.756Z,2.13
2023-07-21T14:59:57.713Z,2.00
2023-07-21T15:01:59.791Z,1.88
2023-07-21T15:04:03.649Z,1.95
2023-07-21T15:06:06.201Z,2.13
2023-07-21T15:08:08.301Z,2.50
2023-07-21T15:10:10.882Z,1.90
2023-07-21T15:12:12.902Z,1.80
2023-07-21T15:14:15.096Z,1.50
2023-07-21T15:16:17.198Z,9.10
2023-07-21T15:18:19.504Z,2.58
2023-07-21T15:20:23.038Z,2.20
2023-07-21T15:22:26.329Z,1.85
2023-07-21T15:24:28.390Z,3.00
2023-07-21T15:26:30.727Z,3.22
2023-07-21T15:28:32.709Z,1.90
2023-07-21T15:30:35.800Z,2.10
2023-07-21T15:32:38.293Z,2.20
2023-07-21T15:34:40.432Z,1.80
2023-07-21T15:36:43.936Z,1.80
2023-07-21T15:38:46.070Z,2.13
2023-07-21T15:40:48.107Z,2.13
2023-07-21T15:42:52.139Z,2.33
2023-07-21T15:44:54.398Z,2.15
2023-07-21T15:46:56.389Z,2.08
2023-07-21T15:48:58.435Z,1.83
2023-07-21T15:51:00.769Z,1.67
2023-07-21T15:53:04.133Z,1.88
2023-07-21T15:55:06.844Z,1.60
2023-07-21T15:57:08.859Z,2.15
2023-07-21T15:59:11.392Z,2.25
2023-07-21T16:03:20.489Z,1.63
2023-07-21T16:05:22.992Z,2.22
2023-07-21T16:07:25.151Z,2.10
2023-07-21T16:09:29.013Z,1.90
2023-07-21T16:11:31.083Z,1.90
2023-07-21T16:13:35.743Z,2.70
2023-07-21T16:15:39.165Z,2.25
2023-07-21T16:17:41.290Z,2.15
2023-07-21T16:19:43.366Z,4.50
2023-07-21T16:21:45.368Z,2.10
2023-07-21T16:23:47.330Z,2.65
2023-07-21T16:25:50.747Z,2.25
2023-07-21T16:27:52.812Z,2.05
2023-07-21T16:29:54.949Z,2.13
2023-07-21T16:31:57.386Z,2.13
2023-07-21T16:34:00.530Z,1.88
2023-07-21T16:36:03.605Z,1.75
2023-07-21T16:38:05.775Z,2.08
2023-07-21T16:40:09.812Z,2.05
2023-07-21T16:42:13.163Z,2.03
2023-07-21T16:44:15.174Z,2.17
2023-07-21T16:46:17.375Z,1.92
2023-07-21T16:48:19.471Z,2.08
2023-07-21T16:50:21.629Z,1.92
2023-07-21T16:52:23.727Z,2.10
2023-07-21T16:54:26.658Z,2.35
2023-07-21T16:56:28.973Z,1.80
2023-07-21T16:58:35.181Z,2.38
2023-07-21T17:00:40.620Z,2.33
2023-07-21T17:02:43.019Z,2.72
2023-07-21T17:04:49.042Z,2.90
2023-07-21T17:06:51.040Z,2.72
2023-07-21T17:08:53.221Z,2.95
2023-07-21T17:10:55.532Z,2.55
2023-07-21T17:12:57.796Z,2.70
2023-07-21T17:15:01.348Z,2.53
2023-07-21T17:17:03.481Z,2.92
2023-07-21T17:19:05.591Z,2.75
2023-07-21T17:21:07.745Z,2.70
2023-07-21T17:23:10.242Z,2.97
2023-07-21T17:25:12.417Z,2.30
2023-07-21T17:27:14.632Z,2.30
2023-07-21T17:29:16.572Z,2.00
2023-07-21T17:31:20.020Z,2.20
2023-07-21T17:33:22.385Z,2.20
2023-07-21T17:35:24.375Z,2.53
2023-07-21T17:37:26.487Z,2.47
2023-07-21T17:39:29.017Z,2.38
2023-07-21T17:41:31.221Z,1.92
2023-07-21T17:43:35.273Z,2.38
2023-07-21T17:45:40.425Z,1.92
2023-07-21T17:47:44.291Z,2.33
2023-07-21T17:49:46.523Z,2.17
2023-07-21T17:51:48.541Z,2.40
2023-07-21T17:53:56.721Z,2.70
2023-07-21T17:55:58.853Z,2.22
2023-07-21T17:58:00.908Z,1.92
2023-07-21T18:00:06.169Z,2.03
2023-07-21T18:02:10.392Z,2.05
2023-07-21T18:04:13.936Z,1.90
2023-07-21T18:06:16.350Z,2.10
2023-07-21T18:08:18.378Z,2.25
2023-07-21T18:10:20.530Z,2.22
2023-07-21T18:12:22.525Z,2.03
2023-07-21T18:14:24.596Z,2.20
2023-07-21T18:16:26.634Z,2.50
2023-07-21T18:18:30.575Z,2.17
2023-07-21T18:20:34.258Z,2.10
2023-07-21T18:22:36.434Z,2.22
2023-07-21T18:24:38.467Z,2.45
2023-07-21T18:26:40.793Z,2.33
2023-07-21T18:28:43.084Z,2.50
2023-07-21T18:30:45.120Z,2.40
2023-07-21T18:32:47.123Z,2.20
2023-07-21T18:34:49.148Z,2.00
2023-07-21T18:36:52.613Z,2.30
2023-07-21T18:38:54.658Z,2.47
2023-07-21T18:40:56.832Z,2.08
2023-07-21T18:42:58.861Z,2.35
2023-07-21T18:45:02.000Z,2.25
2023-07-21T18:47:04.612Z,2.70
2023-07-21T18:49:06.637Z,3.03
2023-07-21T18:51:08.556Z,3.17
2023-07-21T18:53:11.995Z,3.30
2023-07-21T18:55:14.287Z,2.95
2023-07-21T18:57:16.370Z,2.70
2023-07-21T18:59:18.624Z,2.72
2023-07-21T19:01:22.353Z,2.92
2023-07-21T19:03:27.027Z,2.83
2023-07-21T19:05:29.460Z,2.58
2023-07-21T19:07:31.799Z,2.97
2023-07-21T19:09:35.152Z,3.17
2023-07-21T19:11:37.245Z,3.08
2023-07-21T19:13:39.289Z,2.92
2023-07-21T19:15:41.300Z,3.15
2023-07-21T19:17:43.522Z,3.00
2023-07-21T19:19:45.792Z,3.58
2023-07-21T19:21:47.769Z,3.70
2023-07-21T19:23:50.178Z,3.40
2023-07-21T19:25:53.663Z,3.33
2023-07-21T19:27:55.640Z,2.85
2023-07-21T19:29:57.712Z,3.20
2023-07-21T19:31:59.918Z,3.10
2023-07-21T19:34:01.980Z,3.20
2023-07-21T19:36:04.353Z,3.50
2023-07-21T19:38:06.648Z,3.47
2023-07-21T19:40:10.171Z,3.97
2023-07-21T19:42:15.214Z,3.72
2023-07-21T19:46:19.402Z,3.47
2023-07-21T19:48:21.393Z,3.35
2023-07-21T19:50:23.434Z,4.10
2023-07-21T19:52:26.010Z,3.80
2023-07-21T19:54:28.067Z,3.17
2023-07-21T19:56:31.649Z,3.58
2023-07-21T19:58:35.140Z,3.95
2023-07-21T20:00:37.826Z,3.40
2023-07-21T20:02:39.988Z,3.45
2023-07-21T20:04:42.085Z,3.88
2023-07-21T20:06:44.077Z,3.45
2023-07-21T20:08:46.263Z,3.47
2023-07-21T20:10:49.591Z,3.30
2023-07-21T20:12:52.264Z,4.50
2023-07-21T20:14:56.189Z,3.47
2023-07-21T20:16:58.460Z,3.50
2023-07-21T20:19:00.582Z,4.15
2023-07-21T20:21:05.918Z,3.42
2023-07-21T20:23:08.358Z,3.47
2023-07-21T20:25:12.284Z,3.60
2023-07-21T20:27:14.450Z,3.83
2023-07-21T20:29:16.457Z,3.65
2023-07-21T20:31:19.905Z,3.35
2023-07-21T20:33:21.986Z,3.15
2023-07-21T20:35:23.963Z,3.38
2023-07-21T20:37:25.935Z,3.80
2023-07-21T20:39:27.871Z,3.22
2023-07-21T20:41:29.862Z,3.55
2023-07-21T20:43:32.016Z,3.53
2023-07-21T20:45:39.558Z,3.17
2023-07-21T20:47:43.061Z,3.47
2023-07-21T20:49:45.721Z,3.25
2023-07-21T20:51:48.022Z,2.78
2023-07-21T20:53:50.214Z,3.33
2023-07-21T20:55:53.365Z,3.17
2023-07-21T20:57:57.248Z,3.38
2023-07-21T20:59:59.316Z,3.15
2023-07-21T21:02:01.592Z,3.33
2023-07-21T21:04:05.239Z,3.40
2023-07-21T21:06:07.271Z,3.08
2023-07-21T21:08:10.449Z,3.05
2023-07-21T21:10:13.351Z,2.90
2023-07-21T21:12:17.177Z,3.08
2023-07-21T21:14:19.291Z,2.97
2023-07-21T21:16:21.523Z,3.10
2023-07-21T21:18:23.889Z,3.75
2023-07-21T21:20:27.320Z,3.80
2023-07-21T21:22:29.380Z,3.60
2023-07-21T21:24:31.438Z,3.20
2023-07-21T21:26:33.876Z,3.15
2023-07-21T21:28:36.042Z,3.47
2023-07-21T21:30:38.174Z,2.95
2023-07-21T21:32:40.268Z,2.88
2023-07-21T21:34:42.285Z,3.10
2023-07-21T21:36:45.813Z,3.25
2023-07-21T21:38:47.861Z,3.17
2023-07-21T21:40:49.857Z,3.30
2023-07-21T21:42:51.889Z,3.33
2023-07-21T21:44:54.060Z,3.60
2023-07-21T21:46:56.347Z,3.08
2023-07-21T21:48:58.680Z,3.00
2023-07-21T21:51:00.695Z,2.95
2023-07-21T21:53:04.072Z,3.08
2023-07-21T21:55:06.982Z,3.38
2023-07-21T21:57:10.995Z,3.13
2023-07-21T21:59:13.099Z,3.10
2023-07-21T22:01:15.144Z,2.95
2023-07-21T22:03:17.376Z,2.97
2023-07-21T22:05:19.478Z,3.30
2023-07-21T22:07:21.494Z,3.17
2023-07-21T22:09:24.825Z,3.40
2023-07-21T22:11:27.454Z,2.92
2023-07-21T22:13:30.688Z,3.30
2023-07-21T22:15:33.454Z,2.80
2023-07-21T22:17:35.775Z,3.10
2023-07-21T22:19:37.801Z,3.08
2023-07-21T22:21:39.794Z,2.88
2023-07-21T22:23:42.101Z,3.30
2023-07-21T22:25:45.634Z,3.10
2023-07-21T22:27:47.615Z,3.45
2023-07-21T22:29:49.734Z,3.10
2023-07-21T22:31:51.778Z,3.30
2023-07-21T22:33:53.876Z,3.42
2023-07-21T22:35:56.348Z,3.35
2023-07-21T22:37:59.167Z,3.33
2023-07-21T22:40:01.153Z,3.30
2023-07-21T22:42:06.382Z,3.10
2023-07-21T22:44:08.495Z,3.35
2023-07-21T22:46:10.655Z,3.50
2023-07-21T22:48:13.957Z,3.35
2023-07-21T22:50:16.415Z,3.47
2023-07-21T22:52:18.464Z,3.58
2023-07-21T22:54:22.617Z,3.30
2023-07-21T22:56:24.975Z,4.13
2023-07-21T22:58:28.674Z,3.47
2023-07-21T23:00:30.834Z,3.15
2023-07-21T23:02:33.021Z,3.30
2023-07-21T23:04:35.125Z,3.80
2023-07-21T23:06:37.143Z,3.55
2023-07-21T23:08:39.223Z,3.38
2023-07-21T23:10:42.906Z,3.50
2023-07-21T23:12:44.964Z,3.13
2023-07-21T23:14:48.290Z,3.83
2023-07-21T23:16:50.561Z,3.45
2023-07-21T23:18:52.716Z,3.20
2023-07-21T23:20:55.023Z,3.47
2023-07-21T23:22:57.101Z,3.05
2023-07-21T23:24:59.102Z,3.30
2023-07-21T23:27:01.298Z,3.30
2023-07-21T23:29:04.046Z,3.40
2023-07-21T23:31:09.201Z,3.65
2023-07-21T23:33:11.337Z,3.72
2023-07-21T23:35:14.278Z,3.55
2023-07-21T23:37:16.325Z,3.92
2023-07-21T23:39:18.382Z,3.83
2023-07-21T23:41:20.577Z,4.00
2023-07-21T23:43:23.013Z,3.10
2023-07-21T23:45:24.998Z,3.38
2023-07-21T23:47:28.397Z,3.13
2023-07-21T23:49:30.378Z,3.70
2023-07-21T23:51:32.591Z,3.40
2023-07-21T23:53:34.631Z,3.58
2023-07-21T23:55:36.638Z,3.92
2023-07-21T23:57:38.700Z,3.72
2023-07-21T23:59:40.715Z,3.63
